sensor_id;sensor_type;location;lat;lon;timestamp;pressure;altitude;pressure_sealevel;temperature;humidity
26859;BME280;14429;48.346;16.338;2022-11-20T00:01:27;99418.84;;;11.37;59.83
26859;BME280;14429;48.346;16.338;2022-11-20T00:03:54;99413.88;;;11.09;57.30
26859;BME280;14429;48.346;16.338;2022-11-20T00:06:21;99414.34;;;11.82;61.21
26859;BME280;14429;48.346;16.338;2022-11-20T00:08:47;99416.41;;;12.00;60.92
26859;BME280;14429;48.346;16.338;2022-11-20T00:11:15;99421.03;;;12.09;60.77
26859;BME280;14429;48.346;16.338;2022-11-20T00:13:43;99424.53;;;12.10;60.78
26859;BME280;14429;48.346;16.338;2022-11-20T00:16:10;99412.91;;;12.11;60.51
26859;BME280;14429;48.346;16.338;2022-11-20T00:18:36;99404.38;;;12.06;60.74
26859;BME280;14429;48.346;16.338;2022-11-20T00:21:02;99412.16;;;12.09;60.80
26859;BME280;14429;48.346;16.338;2022-11-20T00:23:28;99397.47;;;12.14;60.56
26859;BME280;14429;48.346;16.338;2022-11-20T00:25:53;99402.69;;;12.15;60.51
26859;BME280;14429;48.346;16.338;2022-11-20T00:28:18;99417.03;;;12.25;60.28
26859;BME280;14429;48.346;16.338;2022-11-20T00:30:45;99428.56;;;12.26;60.25
26859;BME280;14429;48.346;16.338;2022-11-20T00:33:11;99425.75;;;12.27;60.09
26859;BME280;14429;48.346;16.338;2022-11-20T00:35:36;99423.59;;;12.21;60.13
26859;BME280;14429;48.346;16.338;2022-11-20T00:38:01;99422.94;;;12.29;60.05
26859;BME280;14429;48.346;16.338;2022-11-20T00:40:27;99429.78;;;12.22;60.12
26859;BME280;14429;48.346;16.338;2022-11-20T00:42:52;99432.56;;;12.31;59.97
26859;BME280;14429;48.346;16.338;2022-11-20T00:45:18;99429.19;;;12.29;59.93
26859;BME280;14429;48.346;16.338;2022-11-20T00:47:44;99435.00;;;12.34;59.86
26859;BME280;14429;48.346;16.338;2022-11-20T00:50:10;99429.88;;;12.31;59.70
26859;BME280;14429;48.346;16.338;2022-11-20T00:52:35;99430.13;;;12.28;59.91
26859;BME280;14429;48.346;16.338;2022-11-20T00:55:01;99422.94;;;12.29;59.88
26859;BME280;14429;48.346;16.338;2022-11-20T00:57:26;99428.91;;;12.32;59.74
26859;BME280;14429;48.346;16.338;2022-11-20T00:59:51;99444.34;;;12.29;59.89
26859;BME280;14429;48.346;16.338;2022-11-20T01:02:17;99437.66;;;12.12;59.23
26859;BME280;14429;48.346;16.338;2022-11-20T01:04:44;99439.38;;;12.13;60.27
26859;BME280;14429;48.346;16.338;2022-11-20T01:07:09;99439.13;;;12.16;60.18
26859;BME280;14429;48.346;16.338;2022-11-20T01:09:35;99442.78;;;12.26;60.00
26859;BME280;14429;48.346;16.338;2022-11-20T01:12:00;99451.78;;;12.25;59.98
26859;BME280;14429;48.346;16.338;2022-11-20T01:14:26;99455.53;;;12.23;60.00
26859;BME280;14429;48.346;16.338;2022-11-20T01:16:51;99459.53;;;12.28;60.10
26859;BME280;14429;48.346;16.338;2022-11-20T01:19:19;99463.41;;;12.24;59.86
26859;BME280;14429;48.346;16.338;2022-11-20T01:21:48;99458.81;;;12.15;60.08
26859;BME280;14429;48.346;16.338;2022-11-20T01:24:15;99451.50;;;12.17;60.05
26859;BME280;14429;48.346;16.338;2022-11-20T01:26:42;99456.38;;;12.23;59.66
26859;BME280;14429;48.346;16.338;2022-11-20T01:29:12;99460.66;;;12.26;59.75
26859;BME280;14429;48.346;16.338;2022-11-20T01:31:38;99449.50;;;11.55;54.76
26859;BME280;14429;48.346;16.338;2022-11-20T01:34:05;99451.50;;;11.85;60.02
26859;BME280;14429;48.346;16.338;2022-11-20T01:36:32;99445.69;;;12.02;60.42
26859;BME280;14429;48.346;16.338;2022-11-20T01:39:01;99450.06;;;11.92;59.78
26859;BME280;14429;48.346;16.338;2022-11-20T01:41:29;99449.56;;;12.09;60.05
26859;BME280;14429;48.346;16.338;2022-11-20T01:43:55;99454.19;;;12.17;60.22
26859;BME280;14429;48.346;16.338;2022-11-20T01:46:21;99453.97;;;11.43;53.06
26859;BME280;14429;48.346;16.338;2022-11-20T01:48:50;99453.06;;;11.66;59.90
26859;BME280;14429;48.346;16.338;2022-11-20T01:51:21;99439.78;;;11.64;59.69
26859;BME280;14429;48.346;16.338;2022-11-20T01:53:50;99443.22;;;11.66;59.08
26859;BME280;14429;48.346;16.338;2022-11-20T01:56:18;99439.41;;;11.47;59.84
26859;BME280;14429;48.346;16.338;2022-11-20T01:58:48;99448.63;;;11.54;55.70
26859;BME280;14429;48.346;16.338;2022-11-20T02:01:15;99457.34;;;11.90;60.71
26859;BME280;14429;48.346;16.338;2022-11-20T02:03:41;99466.09;;;11.92;60.74
26859;BME280;14429;48.346;16.338;2022-11-20T02:06:12;99455.03;;;11.85;60.44
26859;BME280;14429;48.346;16.338;2022-11-20T02:08:39;99453.03;;;9.54;48.86
26859;BME280;14429;48.346;16.338;2022-11-20T02:11:05;99462.94;;;10.25;55.67
26859;BME280;14429;48.346;16.338;2022-11-20T02:13:33;99452.44;;;10.47;59.03
26859;BME280;14429;48.346;16.338;2022-11-20T02:15:59;99476.16;;;8.63;49.01
26859;BME280;14429;48.346;16.338;2022-11-20T02:18:24;99474.19;;;10.41;64.08
26859;BME280;14429;48.346;16.338;2022-11-20T02:20:53;99479.50;;;10.89;61.64
26859;BME280;14429;48.346;16.338;2022-11-20T02:23:26;99479.78;;;10.74;62.27
26859;BME280;14429;48.346;16.338;2022-11-20T02:25:55;99472.13;;;11.15;62.84
26859;BME280;14429;48.346;16.338;2022-11-20T02:28:23;99461.38;;;11.28;62.59
26859;BME280;14429;48.346;16.338;2022-11-20T02:30:49;99461.00;;;11.21;61.68
26859;BME280;14429;48.346;16.338;2022-11-20T02:33:14;99459.53;;;11.40;62.12
26859;BME280;14429;48.346;16.338;2022-11-20T02:35:42;99468.78;;;11.35;61.32
26859;BME280;14429;48.346;16.338;2022-11-20T02:38:08;99472.13;;;11.38;61.69
26859;BME280;14429;48.346;16.338;2022-11-20T02:40:33;99470.63;;;11.11;61.15
26859;BME280;14429;48.346;16.338;2022-11-20T02:43:00;99463.22;;;11.04;58.81
26859;BME280;14429;48.346;16.338;2022-11-20T02:45:26;99453.25;;;11.52;61.81
26859;BME280;14429;48.346;16.338;2022-11-20T02:47:51;99453.38;;;11.51;61.67
26859;BME280;14429;48.346;16.338;2022-11-20T02:50:17;99445.38;;;11.61;61.53
26859;BME280;14429;48.346;16.338;2022-11-20T02:52:43;99438.69;;;11.56;61.33
26859;BME280;14429;48.346;16.338;2022-11-20T02:55:08;99433.00;;;11.71;61.28
26859;BME280;14429;48.346;16.338;2022-11-20T02:57:34;99439.50;;;11.46;59.57
26859;BME280;14429;48.346;16.338;2022-11-20T03:00:01;99440.13;;;11.49;60.51
26859;BME280;14429;48.346;16.338;2022-11-20T03:02:29;99432.97;;;11.27;60.12
26859;BME280;14429;48.346;16.338;2022-11-20T03:04:54;99431.13;;;11.50;61.47
26859;BME280;14429;48.346;16.338;2022-11-20T03:07:20;99422.47;;;11.36;61.18
26859;BME280;14429;48.346;16.338;2022-11-20T03:09:45;99423.72;;;11.43;61.18
26859;BME280;14429;48.346;16.338;2022-11-20T03:12:11;99419.13;;;11.45;61.27
26859;BME280;14429;48.346;16.338;2022-11-20T03:14:36;99412.63;;;11.70;61.22
26859;BME280;14429;48.346;16.338;2022-11-20T03:17:03;99416.88;;;11.84;60.87
26859;BME280;14429;48.346;16.338;2022-11-20T03:19:28;99410.69;;;11.94;60.75
26859;BME280;14429;48.346;16.338;2022-11-20T03:21:54;99416.03;;;11.94;59.79
26859;BME280;14429;48.346;16.338;2022-11-20T03:24:19;99409.44;;;11.44;58.05
26859;BME280;14429;48.346;16.338;2022-11-20T03:26:44;99404.44;;;11.50;60.66
26859;BME280;14429;48.346;16.338;2022-11-20T03:29:10;99404.50;;;11.83;60.81
26859;BME280;14429;48.346;16.338;2022-11-20T03:31:37;99409.72;;;11.84;60.03
26859;BME280;14429;48.346;16.338;2022-11-20T03:34:04;99404.09;;;11.65;59.36
26859;BME280;14429;48.346;16.338;2022-11-20T03:36:30;99406.31;;;11.71;59.40
26859;BME280;14429;48.346;16.338;2022-11-20T03:38:56;99409.00;;;11.93;60.55
26859;BME280;14429;48.346;16.338;2022-11-20T03:41:23;99414.72;;;11.99;60.46
26859;BME280;14429;48.346;16.338;2022-11-20T03:43:50;99406.22;;;12.05;60.32
26859;BME280;14429;48.346;16.338;2022-11-20T03:46:16;99403.31;;;12.08;60.06
26859;BME280;14429;48.346;16.338;2022-11-20T03:48:41;99405.13;;;12.08;59.99
26859;BME280;14429;48.346;16.338;2022-11-20T03:51:10;99401.47;;;12.09;59.93
26859;BME280;14429;48.346;16.338;2022-11-20T03:53:36;99402.81;;;11.37;56.99
26859;BME280;14429;48.346;16.338;2022-11-20T03:56:02;99402.81;;;11.92;60.22
26859;BME280;14429;48.346;16.338;2022-11-20T03:58:27;99402.81;;;11.92;60.36
26859;BME280;14429;48.346;16.338;2022-11-20T04:00:53;99403.84;;;10.90;57.58
26859;BME280;14429;48.346;16.338;2022-11-20T04:03:18;99404.34;;;11.52;60.95
26859;BME280;14429;48.346;16.338;2022-11-20T04:05:44;99402.81;;;11.37;60.31
26859;BME280;14429;48.346;16.338;2022-11-20T04:08:10;99407.47;;;11.46;59.52
26859;BME280;14429;48.346;16.338;2022-11-20T04:10:36;99397.56;;;11.58;60.82
26859;BME280;14429;48.346;16.338;2022-11-20T04:13:01;99381.28;;;11.40;56.66
26859;BME280;14429;48.346;16.338;2022-11-20T04:15:27;99379.31;;;11.42;59.98
26859;BME280;14429;48.346;16.338;2022-11-20T04:17:53;99390.28;;;11.71;61.13
26859;BME280;14429;48.346;16.338;2022-11-20T04:20:18;99386.03;;;11.90;60.54
26859;BME280;14429;48.346;16.338;2022-11-20T04:22:44;99385.34;;;11.99;60.24
26859;BME280;14429;48.346;16.338;2022-11-20T04:25:11;99375.88;;;11.95;60.17
26859;BME280;14429;48.346;16.338;2022-11-20T04:27:36;99380.84;;;12.00;60.19
26859;BME280;14429;48.346;16.338;2022-11-20T04:30:02;99378.78;;;12.03;59.99
26859;BME280;14429;48.346;16.338;2022-11-20T04:32:27;99375.97;;;12.05;59.97
26859;BME280;14429;48.346;16.338;2022-11-20T04:34:53;99361.63;;;12.06;60.03
26859;BME280;14429;48.346;16.338;2022-11-20T04:37:18;99369.88;;;12.03;59.96
26859;BME280;14429;48.346;16.338;2022-11-20T04:39:44;99365.75;;;11.99;60.12
26859;BME280;14429;48.346;16.338;2022-11-20T04:42:10;99362.06;;;10.67;59.51
26859;BME280;14429;48.346;16.338;2022-11-20T04:44:36;99373.28;;;11.51;61.26
26859;BME280;14429;48.346;16.338;2022-11-20T04:47:01;99356.31;;;11.62;61.27
26859;BME280;14429;48.346;16.338;2022-11-20T04:49:27;99354.59;;;11.83;60.63
26859;BME280;14429;48.346;16.338;2022-11-20T04:51:53;99350.47;;;11.90;60.51
26859;BME280;14429;48.346;16.338;2022-11-20T04:54:19;99358.72;;;11.65;60.06
26859;BME280;14429;48.346;16.338;2022-11-20T04:56:44;99343.47;;;11.33;58.99
26859;BME280;14429;48.346;16.338;2022-11-20T04:59:11;99341.75;;;11.66;60.66
26859;BME280;14429;48.346;16.338;2022-11-20T05:01:36;99341.34;;;11.04;58.31
26859;BME280;14429;48.346;16.338;2022-11-20T05:04:02;99346.34;;;11.20;56.93
26859;BME280;14429;48.346;16.338;2022-11-20T05:06:27;99342.47;;;11.24;59.63
26859;BME280;14429;48.346;16.338;2022-11-20T05:08:53;99341.03;;;11.20;58.60
26859;BME280;14429;48.346;16.338;2022-11-20T05:11:20;99350.13;;;11.28;59.83
26859;BME280;14429;48.346;16.338;2022-11-20T05:13:46;99343.78;;;11.52;60.69
26859;BME280;14429;48.346;16.338;2022-11-20T05:16:14;99357.53;;;10.80;53.19
26859;BME280;14429;48.346;16.338;2022-11-20T05:18:40;99352.66;;;10.28;57.70
26859;BME280;14429;48.346;16.338;2022-11-20T05:21:07;99353.09;;;8.75;53.88
26859;BME280;14429;48.346;16.338;2022-11-20T05:23:33;99347.88;;;9.48;64.59
26859;BME280;14429;48.346;16.338;2022-11-20T05:25:59;99342.69;;;10.65;64.26
26859;BME280;14429;48.346;16.338;2022-11-20T05:28:26;99350.75;;;10.64;62.30
26859;BME280;14429;48.346;16.338;2022-11-20T05:30:52;99369.22;;;11.01;62.97
26859;BME280;14429;48.346;16.338;2022-11-20T05:33:19;99362.91;;;11.02;62.54
26859;BME280;14429;48.346;16.338;2022-11-20T05:35:45;99366.63;;;11.22;62.56
26859;BME280;14429;48.346;16.338;2022-11-20T05:38:10;99363.53;;;11.39;62.27
26859;BME280;14429;48.346;16.338;2022-11-20T05:40:36;99362.09;;;11.57;61.75
26859;BME280;14429;48.346;16.338;2022-11-20T05:43:02;99364.31;;;11.52;61.66
26859;BME280;14429;48.346;16.338;2022-11-20T05:45:27;99365.78;;;11.66;61.23
26859;BME280;14429;48.346;16.338;2022-11-20T05:47:52;99367.94;;;11.72;61.14
26859;BME280;14429;48.346;16.338;2022-11-20T05:50:19;99374.03;;;11.85;60.54
26859;BME280;14429;48.346;16.338;2022-11-20T05:52:45;99379.16;;;11.88;60.55
26859;BME280;14429;48.346;16.338;2022-11-20T05:55:10;99391.53;;;11.89;60.30
26859;BME280;14429;48.346;16.338;2022-11-20T05:57:35;99385.94;;;11.70;60.50
26859;BME280;14429;48.346;16.338;2022-11-20T06:00:02;99385.97;;;10.56;48.20
26859;BME280;14429;48.346;16.338;2022-11-20T06:02:27;99378.31;;;11.32;60.60
26859;BME280;14429;48.346;16.338;2022-11-20T06:04:53;99377.66;;;11.62;60.91
26859;BME280;14429;48.346;16.338;2022-11-20T06:07:19;99386.88;;;11.58;60.87
26859;BME280;14429;48.346;16.338;2022-11-20T06:09:45;99389.69;;;11.79;60.59
26859;BME280;14429;48.346;16.338;2022-11-20T06:12:10;99384.50;;;11.88;60.23
26859;BME280;14429;48.346;16.338;2022-11-20T06:14:36;99381.69;;;11.89;60.21
26859;BME280;14429;48.346;16.338;2022-11-20T06:17:01;99374.38;;;11.91;60.27
26859;BME280;14429;48.346;16.338;2022-11-20T06:19:26;99378.41;;;11.97;59.97
26859;BME280;14429;48.346;16.338;2022-11-20T06:21:52;99382.06;;;11.85;59.90
26859;BME280;14429;48.346;16.338;2022-11-20T06:24:19;99377.56;;;11.96;59.97
26859;BME280;14429;48.346;16.338;2022-11-20T06:26:44;99387.13;;;11.99;59.93
26859;BME280;14429;48.346;16.338;2022-11-20T06:29:10;99383.75;;;11.97;59.90
26859;BME280;14429;48.346;16.338;2022-11-20T06:31:35;99385.19;;;12.01;59.75
26859;BME280;14429;48.346;16.338;2022-11-20T06:34:01;99399.28;;;12.03;59.65
26859;BME280;14429;48.346;16.338;2022-11-20T06:36:26;99396.75;;;12.01;59.63
26859;BME280;14429;48.346;16.338;2022-11-20T06:38:52;99400.25;;;12.02;59.74
26859;BME280;14429;48.346;16.338;2022-11-20T06:41:20;99411.44;;;12.07;59.46
26859;BME280;14429;48.346;16.338;2022-11-20T06:43:46;99411.69;;;12.04;59.53
26859;BME280;14429;48.346;16.338;2022-11-20T06:46:13;99411.94;;;12.01;59.60
26859;BME280;14429;48.346;16.338;2022-11-20T06:48:39;99417.13;;;12.02;59.56
26859;BME280;14429;48.346;16.338;2022-11-20T06:51:06;99417.97;;;12.03;59.57
26859;BME280;14429;48.346;16.338;2022-11-20T06:53:31;99420.41;;;12.06;59.42
26859;BME280;14429;48.346;16.338;2022-11-20T06:55:57;99417.50;;;12.09;59.40
26859;BME280;14429;48.346;16.338;2022-11-20T06:58:26;99417.88;;;12.04;59.46
26859;BME280;14429;48.346;16.338;2022-11-20T07:00:52;99417.03;;;12.04;59.51
26859;BME280;14429;48.346;16.338;2022-11-20T07:03:17;99419.09;;;11.89;59.41
26859;BME280;14429;48.346;16.338;2022-11-20T07:05:43;99426.50;;;11.97;59.70
26859;BME280;14429;48.346;16.338;2022-11-20T07:08:09;99421.53;;;12.03;59.29
26859;BME280;14429;48.346;16.338;2022-11-20T07:10:35;99418.72;;;12.05;59.38
26859;BME280;14429;48.346;16.338;2022-11-20T07:13:00;99435.00;;;12.02;59.49
26859;BME280;14429;48.346;16.338;2022-11-20T07:15:27;99430.38;;;12.04;59.40
26859;BME280;14429;48.346;16.338;2022-11-20T07:17:52;99439.13;;;12.06;59.30
26859;BME280;14429;48.346;16.338;2022-11-20T07:20:18;99435.50;;;12.07;59.32
26859;BME280;14429;48.346;16.338;2022-11-20T07:22:43;99440.94;;;12.05;59.33
26859;BME280;14429;48.346;16.338;2022-11-20T07:25:10;99442.03;;;12.03;59.47
26859;BME280;14429;48.346;16.338;2022-11-20T07:27:35;99444.69;;;12.03;59.37
26859;BME280;14429;48.346;16.338;2022-11-20T07:30:01;99442.03;;;12.03;59.35
26859;BME280;14429;48.346;16.338;2022-11-20T07:32:28;99445.44;;;12.05;59.22
26859;BME280;14429;48.346;16.338;2022-11-20T07:34:53;99449.09;;;12.04;59.24
26859;BME280;14429;48.346;16.338;2022-11-20T07:37:19;99439.88;;;12.08;59.07
26859;BME280;14429;48.346;16.338;2022-11-20T07:39:44;99446.53;;;12.02;59.34
26859;BME280;14429;48.346;16.338;2022-11-20T07:42:10;99447.28;;;12.04;59.27
26859;BME280;14429;48.346;16.338;2022-11-20T07:44:35;99451.63;;;12.05;59.20
26859;BME280;14429;48.346;16.338;2022-11-20T07:47:01;99451.03;;;12.02;59.28
26859;BME280;14429;48.346;16.338;2022-11-20T07:49:28;99454.81;;;11.99;59.30
26859;BME280;14429;48.346;16.338;2022-11-20T07:51:53;99465.13;;;12.04;59.22
26859;BME280;14429;48.346;16.338;2022-11-20T07:54:19;99474.72;;;12.06;59.19
26859;BME280;14429;48.346;16.338;2022-11-20T07:56:44;99473.00;;;12.05;59.23
26859;BME280;14429;48.346;16.338;2022-11-20T07:59:10;99467.06;;;12.02;59.19
26859;BME280;14429;48.346;16.338;2022-11-20T08:01:35;99473.13;;;11.93;59.45
26859;BME280;14429;48.346;16.338;2022-11-20T08:04:01;99465.59;;;11.98;59.42
26859;BME280;14429;48.346;16.338;2022-11-20T08:06:27;99465.13;;;12.04;59.15
26859;BME280;14429;48.346;16.338;2022-11-20T08:08:53;99452.97;;;12.00;59.23
26859;BME280;14429;48.346;16.338;2022-11-20T08:11:18;99447.50;;;12.01;59.26
26859;BME280;14429;48.346;16.338;2022-11-20T08:13:44;99454.69;;;12.01;59.28
26859;BME280;14429;48.346;16.338;2022-11-20T08:16:10;99455.53;;;12.01;59.18
26859;BME280;14429;48.346;16.338;2022-11-20T08:18:35;99451.03;;;12.02;59.19
26859;BME280;14429;48.346;16.338;2022-11-20T08:21:04;99454.91;;;12.09;59.05
26859;BME280;14429;48.346;16.338;2022-11-20T08:23:31;99458.06;;;12.03;59.05
26859;BME280;14429;48.346;16.338;2022-11-20T08:25:57;99458.31;;;12.00;59.21
26859;BME280;14429;48.346;16.338;2022-11-20T08:28:22;99460.47;;;11.95;59.34
26859;BME280;14429;48.346;16.338;2022-11-20T08:30:47;99465.34;;;12.01;59.22
26859;BME280;14429;48.346;16.338;2022-11-20T08:33:13;99461.72;;;12.02;59.20
26859;BME280;14429;48.346;16.338;2022-11-20T08:35:38;99462.91;;;11.98;59.19
26859;BME280;14429;48.346;16.338;2022-11-20T08:38:05;99461.94;;;11.99;59.30
26859;BME280;14429;48.346;16.338;2022-11-20T08:40:32;99459.03;;;11.91;59.29
26859;BME280;14429;48.346;16.338;2022-11-20T08:42:58;99454.78;;;11.78;59.09
26859;BME280;14429;48.346;16.338;2022-11-20T08:45:23;99450.78;;;11.94;59.26
26859;BME280;14429;48.346;16.338;2022-11-20T08:47:49;99448.94;;;11.94;59.19
26859;BME280;14429;48.346;16.338;2022-11-20T08:50:16;99450.31;;;12.00;59.15
26859;BME280;14429;48.346;16.338;2022-11-20T08:52:41;99445.69;;;12.02;59.10
26859;BME280;14429;48.346;16.338;2022-11-20T08:55:08;99449.94;;;12.04;59.02
26859;BME280;14429;48.346;16.338;2022-11-20T08:57:36;99449.16;;;11.70;58.67
26859;BME280;14429;48.346;16.338;2022-11-20T09:00:03;99451.59;;;11.84;59.51
26859;BME280;14429;48.346;16.338;2022-11-20T09:02:29;99444.69;;;11.81;59.60
26859;BME280;14429;48.346;16.338;2022-11-20T09:04:55;99452.66;;;11.59;59.15
26859;BME280;14429;48.346;16.338;2022-11-20T09:07:20;99442.50;;;11.75;59.71
26859;BME280;14429;48.346;16.338;2022-11-20T09:09:46;99444.81;;;11.80;59.73
26859;BME280;14429;48.346;16.338;2022-11-20T09:12:11;99449.31;;;11.90;59.55
26859;BME280;14429;48.346;16.338;2022-11-20T09:14:38;99447.84;;;11.86;59.53
26859;BME280;14429;48.346;16.338;2022-11-20T09:17:03;99442.25;;;11.78;59.63
26859;BME280;14429;48.346;16.338;2022-11-20T09:19:29;99446.69;;;11.22;56.41
26859;BME280;14429;48.346;16.338;2022-11-20T09:21:54;99453.41;;;11.72;59.62
26859;BME280;14429;48.346;16.338;2022-11-20T09:24:19;99449.78;;;11.84;59.66
26859;BME280;14429;48.346;16.338;2022-11-20T09:26:45;99439.84;;;11.86;59.56
26859;BME280;14429;48.346;16.338;2022-11-20T09:29:10;99442.28;;;11.89;59.62
26859;BME280;14429;48.346;16.338;2022-11-20T09:31:37;99444.66;;;11.59;59.22
26859;BME280;14429;48.346;16.338;2022-11-20T09:34:03;99443.25;;;11.77;59.59
26859;BME280;14429;48.346;16.338;2022-11-20T09:36:28;99434.72;;;11.83;59.64
26859;BME280;14429;48.346;16.338;2022-11-20T09:38:53;99438.88;;;11.87;59.54
26859;BME280;14429;48.346;16.338;2022-11-20T09:41:32;99435.47;;;11.74;59.93
26859;BME280;14429;48.346;16.338;2022-11-20T09:44:06;99429.16;;;11.86;59.48
26859;BME280;14429;48.346;16.338;2022-11-20T09:46:37;99430.84;;;11.87;59.50
26859;BME280;14429;48.346;16.338;2022-11-20T09:49:23;99426.72;;;11.83;59.51
26859;BME280;14429;48.346;16.338;2022-11-20T09:51:57;99421.59;;;11.80;59.62
26859;BME280;14429;48.346;16.338;2022-11-20T09:54:27;99419.78;;;11.70;58.87
26859;BME280;14429;48.346;16.338;2022-11-20T09:56:58;99421.63;;;11.69;59.36
26859;BME280;14429;48.346;16.338;2022-11-20T09:59:33;99413.00;;;11.87;59.46
26859;BME280;14429;48.346;16.338;2022-11-20T10:02:03;99408.03;;;11.94;59.24
26859;BME280;14429;48.346;16.338;2022-11-20T10:04:43;99412.75;;;11.90;59.27
26859;BME280;14429;48.346;16.338;2022-11-20T10:07:13;99408.97;;;11.71;59.19
26859;BME280;14429;48.346;16.338;2022-11-20T10:09:47;99413.31;;;11.61;59.22
26859;BME280;14429;48.346;16.338;2022-11-20T10:12:20;99411.06;;;10.77;54.92
26859;BME280;14429;48.346;16.338;2022-11-20T10:14:59;99410.34;;;11.32;59.87
26859;BME280;14429;48.346;16.338;2022-11-20T10:17:40;99411.13;;;11.45;60.00
26859;BME280;14429;48.346;16.338;2022-11-20T10:20:16;99402.19;;;11.67;59.96
26859;BME280;14429;48.346;16.338;2022-11-20T10:22:57;99404.72;;;11.69;60.00
26859;BME280;14429;48.346;16.338;2022-11-20T10:25:30;99398.28;;;11.60;59.86
26859;BME280;14429;48.346;16.338;2022-11-20T10:28:17;99391.22;;;11.49;59.59
26859;BME280;14429;48.346;16.338;2022-11-20T10:30:54;99398.31;;;11.71;59.92
26859;BME280;14429;48.346;16.338;2022-11-20T10:33:24;99397.22;;;11.85;59.52
26859;BME280;14429;48.346;16.338;2022-11-20T10:35:53;99403.63;;;11.71;59.56
26859;BME280;14429;48.346;16.338;2022-11-20T10:38:24;99397.28;;;11.40;56.37
26859;BME280;14429;48.346;16.338;2022-11-20T10:40:54;99407.53;;;11.67;59.62
26859;BME280;14429;48.346;16.338;2022-11-20T10:43:27;99391.97;;;11.61;59.69
26859;BME280;14429;48.346;16.338;2022-11-20T10:45:57;99403.63;;;11.71;59.89
26859;BME280;14429;48.346;16.338;2022-11-20T10:48:26;99397.34;;;11.83;59.49
26859;BME280;14429;48.346;16.338;2022-11-20T10:51:01;99395.81;;;11.47;60.14
26859;BME280;14429;48.346;16.338;2022-11-20T10:53:40;99404.59;;;11.59;60.17
26859;BME280;14429;48.346;16.338;2022-11-20T10:56:14;99392.38;;;11.34;55.32
26859;BME280;14429;48.346;16.338;2022-11-20T10:58:47;99391.97;;;11.61;59.93
26859;BME280;14429;48.346;16.338;2022-11-20T11:01:17;99381.28;;;11.72;59.68
26859;BME280;14429;48.346;16.338;2022-11-20T11:03:44;99377.31;;;11.78;59.58
26859;BME280;14429;48.346;16.338;2022-11-20T11:06:14;99376.72;;;11.85;59.32
26859;BME280;14429;48.346;16.338;2022-11-20T11:08:43;99382.47;;;11.47;58.11
26859;BME280;14429;48.346;16.338;2022-11-20T11:11:20;99373.78;;;11.66;59.35
26859;BME280;14429;48.346;16.338;2022-11-20T11:13:46;99373.97;;;10.74;51.64
26859;BME280;14429;48.346;16.338;2022-11-20T11:16:19;99374.72;;;11.10;59.88
26859;BME280;14429;48.346;16.338;2022-11-20T11:18:46;99377.91;;;10.46;57.66
26859;BME280;14429;48.346;16.338;2022-11-20T11:21:11;99374.53;;;10.44;57.79
26859;BME280;14429;48.346;16.338;2022-11-20T11:23:39;99381.13;;;10.50;58.98
26859;BME280;14429;48.346;16.338;2022-11-20T11:26:06;99374.72;;;11.21;61.06
26859;BME280;14429;48.346;16.338;2022-11-20T11:28:32;99363.53;;;11.39;60.74
26859;BME280;14429;48.346;16.338;2022-11-20T11:30:58;99370.28;;;11.21;60.22
26859;BME280;14429;48.346;16.338;2022-11-20T11:33:26;99369.63;;;11.52;60.37
26859;BME280;14429;48.346;16.338;2022-11-20T11:35:55;99370.84;;;11.14;59.67
26859;BME280;14429;48.346;16.338;2022-11-20T11:38:22;99365.53;;;11.58;60.19
26859;BME280;14429;48.346;16.338;2022-11-20T11:40:48;99368.06;;;11.60;60.20
26859;BME280;14429;48.346;16.338;2022-11-20T11:43:19;99363.13;;;10.65;52.30
26859;BME280;14429;48.346;16.338;2022-11-20T11:45:52;99367.59;;;11.21;60.70
26859;BME280;14429;48.346;16.338;2022-11-20T11:48:17;99362.09;;;11.46;60.45
26859;BME280;14429;48.346;16.338;2022-11-20T11:50:48;99353.13;;;11.57;60.39
26859;BME280;14429;48.346;16.338;2022-11-20T11:53:17;99349.75;;;11.77;59.86
26859;BME280;14429;48.346;16.338;2022-11-20T11:55:46;99344.31;;;11.23;58.93
26859;BME280;14429;48.346;16.338;2022-11-20T11:58:27;99340.75;;;11.57;60.11
26859;BME280;14429;48.346;16.338;2022-11-20T12:00:58;99336.03;;;11.15;58.63
26859;BME280;14429;48.346;16.338;2022-11-20T12:03:31;99333.53;;;11.25;59.69
26859;BME280;14429;48.346;16.338;2022-11-20T12:06:01;99329.84;;;10.70;53.50
26859;BME280;14429;48.346;16.338;2022-11-20T12:08:40;99331.53;;;10.71;59.75
26859;BME280;14429;48.346;16.338;2022-11-20T12:11:12;99321.81;;;11.04;60.82
26859;BME280;14429;48.346;16.338;2022-11-20T12:13:45;99328.31;;;11.34;60.53
26859;BME280;14429;48.346;16.338;2022-11-20T12:16:14;99322.97;;;10.78;53.49
26859;BME280;14429;48.346;16.338;2022-11-20T12:18:42;99330.78;;;10.46;56.04
26859;BME280;14429;48.346;16.338;2022-11-20T12:21:18;99337.84;;;9.52;55.22
26859;BME280;14429;48.346;16.338;2022-11-20T12:23:54;99347.75;;;9.62;54.57
26859;BME280;14429;48.346;16.338;2022-11-20T12:26:35;99339.06;;;10.31;60.70
26859;BME280;14429;48.346;16.338;2022-11-20T12:29:08;99349.28;;;10.60;61.45
26859;BME280;14429;48.346;16.338;2022-11-20T12:31:48;99342.81;;;11.08;61.86
26859;BME280;14429;48.346;16.338;2022-11-20T12:37:10;99342.19;;;11.39;60.69
26859;BME280;14429;48.346;16.338;2022-11-20T12:39:42;99330.97;;;11.23;59.76
26859;BME280;14429;48.346;16.338;2022-11-20T12:42:23;99326.19;;;11.60;60.37
26859;BME280;14429;48.346;16.338;2022-11-20T12:45:14;99320.00;;;11.60;59.95
26859;BME280;14429;48.346;16.338;2022-11-20T12:47:52;99318.91;;;11.41;59.67
26859;BME280;14429;48.346;16.338;2022-11-20T12:50:28;99320.31;;;11.34;59.61
26859;BME280;14429;48.346;16.338;2022-11-20T12:53:03;99312.00;;;11.49;60.43
26859;BME280;14429;48.346;16.338;2022-11-20T12:55:36;99319.88;;;11.61;60.31